Time;durP1;ratioP1;P1;durP2;ratioP2;P2;SDS_P1;SDS_P2;PMS_P1;PMS_P2;Temp;Humidity;BMP_temperature;BMP_pressure;BME280_temperature;BME280_humidity;BME280_pressure;Samples;Min_cycle;Max_cycle;Signal;HPM_P1;HPM_P2
2024/03/16 00:00:06;;;;;;;;;;;;;;;;;;5001739;28;19957;-60
2024/03/16 00:02:33;;;;;;;;;;;;;;;;;;5000348;28;19909;-59
2024/03/16 00:04:59;;;;;;;;;;;;;;;;;;4992529;28;20273;-61
2024/03/16 00:07:25;;;;;;;;;;;;;;;;;;4992379;28;19964;-59
2024/03/16 00:09:51;;;;;;;;;;;;;;;;;;4999925;28;19909;-60
2024/03/16 00:12:17;;;;;;;;;;;;;;;;;;5011712;28;20370;-61
2024/03/16 00:14:43;;;;;;;;;;;;;;;;;;4997028;28;19924;-60
2024/03/16 00:17:09;;;;;;;;;;;;;;;;;;5006176;28;19925;-61
2024/03/16 00:19:35;;;;;;;;;;;;;;;;;;5007330;28;20391;-61
2024/03/16 00:22:01;;;;;;;;;;;;;;;;;;4992489;28;19917;-61
2024/03/16 00:24:28;;;;;;;;;;;;;;;;;;4992491;28;19910;-60
2024/03/16 00:26:54;;;;;;;;;;;;;;;;;;4996758;28;20384;-61
2024/03/16 00:29:21;;;;;;;;;;;;;;;;;;5010097;28;19910;-62
2024/03/16 00:31:48;;;;;;;;;;;;;;;;;;5001517;28;20307;-62
2024/03/16 00:34:15;;;;;;;;;;;;;;;;;;5011949;28;19909;-61
2024/03/16 00:36:41;;;;;;;;;;;;;;;;;;5010979;28;20375;-62
2024/03/16 00:39:18;;;;;;;;;;;;;;;;;;5010769;28;20299;-62
2024/03/16 00:41:44;;;;;;;;;;;;;;;;;;4993843;28;20000;-62
2024/03/16 00:44:10;;;;;;;;;;;;;;;;;;4992259;28;19910;-61
2024/03/16 00:46:36;;;;;;;;;;;;;;;;;;5001112;28;20462;-62
2024/03/16 00:49:02;;;;;;;;;;;;;;;;;;4992221;28;19992;-62
2024/03/16 00:51:28;;;;;;;;;;;;;;;;;;5011641;28;19919;-61
2024/03/16 00:53:54;;;;;;;;;;;;;;;;;;4999815;28;20000;-62
2024/03/16 00:56:24;;;;;;;;;;;;;;;;;;4994349;28;20265;-62
2024/03/16 00:58:50;;;;;;;;;;;;;;;;;;5001975;28;19910;-62
2024/03/16 01:01:17;;;;;;;;;;;;;;;;;;5003682;28;19916;-62
2024/03/16 01:03:43;;;;;;;;;;;;;;;;;;5015217;28;19909;-62
2024/03/16 01:06:09;;;;;;;;;;;;;;;;;;5011167;28;19922;-62
2024/03/16 01:08:35;;;;;;;;;;;;;;;;;;4994405;28;19910;-62
2024/03/16 01:11:02;;;;;;;;;;;;;;;;;;5011136;28;20027;-61
2024/03/16 01:13:28;;;;;;;;;;;;;;;;;;5014944;28;19936;-62
2024/03/16 01:15:54;;;;;;;;;;;;;;;;;;5008838;28;19921;-61
2024/03/16 01:18:20;;;;;;;;;;;;;;;;;;5001603;28;20302;-62
2024/03/16 01:20:47;;;;;;;;;;;;;;;;;;5010353;28;19909;-61
2024/03/16 01:23:13;;;;;;;;;;;;;;;;;;5014888;28;20272;-61
2024/03/16 01:25:39;;;;;;;;;;;;;;;;;;5005194;28;20008;-62
2024/03/16 01:28:05;;;;;;;;;;;;;;;;;;5011717;28;19960;-62
2024/03/16 01:30:31;;;;;;;;;;;;;;;;;;5010033;28;19933;-62
2024/03/16 01:32:57;;;;;;;;;;;;;;;;;;4977640;28;19916;-62
2024/03/16 01:35:23;;;;;;;;;;;;;;;;;;4994858;28;19921;-62
2024/03/16 01:37:51;;;;;;;;;;;;;;;;;;5000062;28;19932;-62
2024/03/16 01:40:24;;;;;;;;;;;;;;;;;;4996208;28;19910;-61
2024/03/16 01:42:50;;;;;;;;;;;;;;;;;;4995009;28;20008;-61
2024/03/16 01:45:16;;;;;;;;;;;;;;;;;;4996032;28;19912;-61
2024/03/16 01:47:42;;;;;;;;;;;;;;;;;;5011967;28;19920;-61
2024/03/16 01:50:08;;;;;;;;;;;;;;;;;;5013819;28;19909;-61
2024/03/16 01:52:35;;;;;;;;;;;;;;;;;;5011169;28;20138;-62
2024/03/16 01:55:01;;;;;;;;;;;;;;;;;;4995704;28;19929;-61
2024/03/16 01:57:27;;;;;;;;;;;;;;;;;;4994457;28;19909;-61
2024/03/16 01:59:53;;;;;;;;;;;;;;;;;;5009781;28;20346;-62
2024/03/16 02:02:19;;;;;;;;;;;;;;;;;;5000340;28;19920;-62
2024/03/16 02:04:46;;;;;;;;;;;;;;;;;;5005086;28;20280;-62
2024/03/16 02:07:12;;;;;;;;;;;;;;;;;;4993027;28;19920;-62
2024/03/16 02:09:39;;;;;;;;;;;;;;;;;;5006352;28;20462;-62
2024/03/16 02:12:05;;;;;;;;;;;;;;;;;;5014014;28;19909;-62
2024/03/16 02:14:31;;;;;;;;;;;;;;;;;;5013785;28;19912;-62
2024/03/16 02:16:57;;;;;;;;;;;;;;;;;;5013745;28;19909;-61
2024/03/16 02:19:23;;;;;;;;;;;;;;;;;;5013883;28;19985;-62
2024/03/16 02:21:49;;;;;;;;;;;;;;;;;;5008449;28;19917;-62
2024/03/16 02:24:15;;;;;;;;;;;;;;;;;;4995640;28;19916;-61
2024/03/16 02:26:41;;;;;;;;;;;;;;;;;;5004029;28;19920;-62
2024/03/16 02:29:08;;;;;;;;;;;;;;;;;;4996055;28;19917;-61
2024/03/16 02:31:36;;;;;;;;;;;;;;;;;;5004215;28;19910;-61
2024/03/16 02:34:02;;;;;;;;;;;;;;;;;;5011875;28;19910;-61
2024/03/16 02:36:28;;;;;;;;;;;;;;;;;;5013228;28;19924;-61
2024/03/16 02:38:54;;;;;;;;;;;;;;;;;;5006993;28;19910;-62
2024/03/16 02:41:22;;;;;;;;;;;;;;;;;;4993501;28;19909;-62
2024/03/16 02:43:48;;;;;;;;;;;;;;;;;;4992573;28;19905;-62
2024/03/16 02:46:14;;;;;;;;;;;;;;;;;;4978267;28;20012;-61
2024/03/16 02:48:40;;;;;;;;;;;;;;;;;;5004770;28;19909;-62
2024/03/16 02:51:07;;;;;;;;;;;;;;;;;;5012111;28;19909;-62
2024/03/16 02:53:34;;;;;;;;;;;;;;;;;;4995573;28;19905;-62
2024/03/16 02:56:00;;;;;;;;;;;;;;;;;;5012580;28;19916;-62
2024/03/16 02:58:26;;;;;;;;;;;;;;;;;;5013366;28;19909;-62
2024/03/16 03:00:52;;;;;;;;;;;;;;;;;;5004972;28;19909;-59
2024/03/16 03:03:18;;;;;;;;;;;;;;;;;;4994179;28;20411;-61
2024/03/16 03:05:44;;;;;;;;;;;;;;;;;;4993963;28;20394;-62
2024/03/16 03:08:11;;;;;;;;;;;;;;;;;;4992511;28;19957;-61
2024/03/16 03:10:39;;;;;;;;;;;;;;;;;;4997908;28;19932;-61
2024/03/16 03:13:05;;;;;;;;;;;;;;;;;;5003745;28;20000;-61
2024/03/16 03:15:33;;;;;;;;;;;;;;;;;;4996969;28;19910;-62
2024/03/16 03:17:59;;;;;;;;;;;;;;;;;;5009200;28;19936;-61
2024/03/16 03:20:26;;;;;;;;;;;;;;;;;;5011061;28;19916;-62
2024/03/16 03:22:52;;;;;;;;;;;;;;;;;;4997170;28;19916;-62
2024/03/16 03:25:19;;;;;;;;;;;;;;;;;;4992833;28;19910;-61
2024/03/16 03:27:45;;;;;;;;;;;;;;;;;;4994007;28;19914;-62
2024/03/16 03:30:11;;;;;;;;;;;;;;;;;;5003425;28;19944;-62
2024/03/16 03:32:37;;;;;;;;;;;;;;;;;;4993293;28;19949;-62
2024/03/16 03:35:03;;;;;;;;;;;;;;;;;;5008284;28;19910;-62
2024/03/16 03:37:30;;;;;;;;;;;;;;;;;;5011077;28;20299;-61
2024/03/16 03:39:56;;;;;;;;;;;;;;;;;;5012413;28;19906;-61
2024/03/16 03:42:25;;;;;;;;;;;;;;;;;;5001919;28;20323;-61
2024/03/16 03:45:00;;;;;;;;;;;;;;;;;;4992813;28;19920;-61
2024/03/16 03:47:40;;;;;;;;;;;;;;;;;;5011542;28;19968;-61
2024/03/16 03:50:06;;;;;;;;;;;;;;;;;;4994086;28;19913;-61
2024/03/16 03:52:32;;;;;;;;;;;;;;;;;;5001088;28;19948;-61
2024/03/16 03:54:58;;;;;;;;;;;;;;;;;;4996038;28;19954;-61
2024/03/16 03:57:24;;;;;;;;;;;;;;;;;;5011857;28;20310;-61
2024/03/16 03:59:50;;;;;;;;;;;;;;;;;;5012322;28;20380;-61
2024/03/16 04:02:17;;;;;;;;;;;;;;;;;;5000134;28;20422;-62
2024/03/16 04:04:43;;;;;;;;;;;;;;;;;;5002338;28;19913;-60
2024/03/16 04:07:09;;;;;;;;;;;;;;;;;;5005555;28;20400;-61
2024/03/16 04:09:35;;;;;;;;;;;;;;;;;;5010453;28;19910;-61
2024/03/16 04:12:01;;;;;;;;;;;;;;;;;;5002580;28;19917;-61
2024/03/16 04:14:27;;;;;;;;;;;;;;;;;;4995783;28;20012;-61
2024/03/16 04:16:53;;;;;;;;;;;;;;;;;;4992107;28;19906;-61
2024/03/16 04:19:19;;;;;;;;;;;;;;;;;;5001496;28;19976;-61
2024/03/16 04:21:49;;;;;;;;;;;;;;;;;;5010452;28;19910;-61
2024/03/16 04:24:15;;;;;;;;;;;;;;;;;;5012019;28;20384;-61
2024/03/16 04:26:41;;;;;;;;;;;;;;;;;;4998970;28;20375;-62
2024/03/16 04:29:08;;;;;;;;;;;;;;;;;;5004887;28;19910;-60
2024/03/16 04:31:34;;;;;;;;;;;;;;;;;;5007729;28;19909;-60
2024/03/16 04:34:00;;;;;;;;;;;;;;;;;;5015511;28;19909;-62
2024/03/16 04:36:26;;;;;;;;;;;;;;;;;;5001226;28;19920;-61
2024/03/16 04:38:52;;;;;;;;;;;;;;;;;;5002016;28;19915;-61
2024/03/16 04:41:19;;;;;;;;;;;;;;;;;;5015743;28;19964;-61
2024/03/16 04:43:47;;;;;;;;;;;;;;;;;;5015586;28;19959;-61
2024/03/16 04:46:13;;;;;;;;;;;;;;;;;;5008170;28;19910;-60
2024/03/16 04:48:39;;;;;;;;;;;;;;;;;;5000183;28;20328;-60
2024/03/16 04:51:05;;;;;;;;;;;;;;;;;;5013740;28;19932;-62
2024/03/16 04:53:32;;;;;;;;;;;;;;;;;;4997863;28;19914;-60
2024/03/16 04:55:58;;;;;;;;;;;;;;;;;;5008907;28;20428;-61
2024/03/16 04:58:25;;;;;;;;;;;;;;;;;;5011647;28;19949;-60
2024/03/16 05:00:51;;;;;;;;;;;;;;;;;;4995514;28;19960;-61
2024/03/16 05:03:17;;;;;;;;;;;;;;;;;;4995671;28;19916;-60
2024/03/16 05:05:43;;;;;;;;;;;;;;;;;;4994274;28;19909;-60
2024/03/16 05:08:09;;;;;;;;;;;;;;;;;;4995633;28;19952;-59
2024/03/16 05:10:36;;;;;;;;;;;;;;;;;;4995518;28;19909;-61
2024/03/16 05:13:02;;;;;;;;;;;;;;;;;;4995552;28;20295;-61
2024/03/16 05:15:28;;;;;;;;;;;;;;;;;;4995239;28;19992;-60
2024/03/16 05:17:54;;;;;;;;;;;;;;;;;;4995524;28;20099;-61
2024/03/16 05:20:21;;;;;;;;;;;;;;;;;;4995467;28;20196;-60
2024/03/16 05:22:48;;;;;;;;;;;;;;;;;;4995340;28;20373;-60
2024/03/16 05:25:15;;;;;;;;;;;;;;;;;;4993858;28;19948;-60
2024/03/16 05:27:42;;;;;;;;;;;;;;;;;;4995178;28;19914;-58
2024/03/16 05:30:08;;;;;;;;;;;;;;;;;;4995218;28;19910;-60
2024/03/16 05:32:35;;;;;;;;;;;;;;;;;;4995360;28;19933;-62
2024/03/16 05:35:01;;;;;;;;;;;;;;;;;;5003705;23;20411;-61
2024/03/16 05:37:27;;;;;;;;;;;;;;;;;;5009814;28;20346;-60
2024/03/16 05:39:54;;;;;;;;;;;;;;;;;;5012687;28;19909;-61
2024/03/16 05:42:20;;;;;;;;;;;;;;;;;;5014616;28;19944;-61
2024/03/16 05:44:46;;;;;;;;;;;;;;;;;;5014612;28;20406;-60
2024/03/16 05:47:12;;;;;;;;;;;;;;;;;;5014337;28;19914;-61
2024/03/16 05:49:40;;;;;;;;;;;;;;;;;;5014551;28;19913;-60
2024/03/16 05:52:06;;;;;;;;;;;;;;;;;;5014416;28;19992;-61
2024/03/16 05:54:34;;;;;;;;;;;;;;;;;;5014358;28;19916;-61
2024/03/16 05:57:00;;;;;;;;;;;;;;;;;;5014091;28;19905;-60
2024/03/16 05:59:26;;;;;;;;;;;;;;;;;;5014475;28;19960;-60
2024/03/16 06:01:53;;;;;;;;;;;;;;;;;;5012995;28;19905;-61
2024/03/16 06:04:19;;;;;;;;;;;;;;;;;;5014269;28;19996;-60
2024/03/16 06:06:46;;;;;;;;;;;;;;;;;;5013893;28;19914;-61
2024/03/16 06:09:12;;;;;;;;;;;;;;;;;;5014122;28;20307;-60
2024/03/16 06:11:38;;;;;;;;;;;;;;;;;;5014058;28;19931;-61
2024/03/16 06:14:04;;;;;;;;;;;;;;;;;;5014270;28;19909;-61
2024/03/16 06:16:30;;;;;;;;;;;;;;;;;;5012554;28;20359;-61
2024/03/16 06:18:58;;;;;;;;;;;;;;;;;;5014004;28;19993;-61
2024/03/16 06:21:24;;;;;;;;;;;;;;;;;;5014146;28;19975;-60
2024/03/16 06:23:51;;;;;;;;;;;;;;;;;;5013842;28;19909;-61
2024/03/16 06:26:17;;;;;;;;;;;;;;;;;;5013433;28;20274;-61
2024/03/16 06:28:47;;;;;;;;;;;;;;;;;;5012610;28;19967;-61
2024/03/16 06:31:13;;;;;;;;;;;;;;;;;;5012518;28;19905;-59
2024/03/16 06:33:45;;;;;;;;;;;;;;;;;;5012409;28;19917;-61
2024/03/16 06:36:11;;;;;;;;;;;;;;;;;;5013454;28;19948;-62
2024/03/16 06:38:37;;;;;;;;;;;;;;;;;;5013877;28;19959;-60
2024/03/16 06:41:03;;;;;;;;;;;;;;;;;;5012393;28;19909;-60
2024/03/16 06:43:29;;;;;;;;;;;;;;;;;;5012240;28;19936;-55
2024/03/16 06:45:56;;;;;;;;;;;;;;;;;;5013179;28;19905;-57
2024/03/16 06:48:22;;;;;;;;;;;;;;;;;;5013375;28;19909;-58
2024/03/16 06:50:49;;;;;;;;;;;;;;;;;;5012880;28;20294;-58
2024/03/16 06:53:15;;;;;;;;;;;;;;;;;;5013010;28;20005;-60
2024/03/16 06:55:41;;;;;;;;;;;;;;;;;;5011966;28;20335;-57
2024/03/16 06:58:09;;;;;;;;;;;;;;;;;;5004655;28;19952;-59
2024/03/16 07:00:35;;;;;;;;;;;;;;;;;;4993515;28;20435;-56
2024/03/16 07:03:02;;;;;;;;;;;;;;;;;;4993471;28;19912;-57
2024/03/16 07:05:28;;;;;;;;;;;;;;;;;;4993161;28;19910;-58
2024/03/16 07:07:54;;;;;;;;;;;;;;;;;;4993282;28;19910;-61
2024/03/16 07:10:20;;;;;;;;;;;;;;;;;;4993291;28;20357;-61
2024/03/16 07:12:46;;;;;;;;;;;;;;;;;;4992092;28;20268;-61
2024/03/16 07:15:15;;;;;;;;;;;;;;;;;;4992991;28;19949;-61
2024/03/16 07:17:41;;;;;;;;;;;;;;;;;;5010397;28;19929;-61
2024/03/16 07:20:10;;;;;;;;;;;;;;;;;;5012637;28;19909;-60
2024/03/16 07:22:37;;;;;;;;;;;;;;;;;;5012870;28;19912;-61
2024/03/16 07:25:03;;;;;;;;;;;;;;;;;;5012643;28;19909;-61
2024/03/16 07:27:29;;;;;;;;;;;;;;;;;;5012320;28;19914;-61
2024/03/16 07:29:56;;;;;;;;;;;;;;;;;;5012666;28;20398;-61
2024/03/16 07:32:22;;;;;;;;;;;;;;;;;;5012663;28;19948;-61
2024/03/16 07:34:48;;;;;;;;;;;;;;;;;;5012407;28;19905;-60
2024/03/16 07:37:16;;;;;;;;;;;;;;;;;;5012163;28;20008;-60
2024/03/16 07:39:42;;;;;;;;;;;;;;;;;;5012518;28;20356;-61
2024/03/16 07:42:09;;;;;;;;;;;;;;;;;;5012581;28;20004;-60
2024/03/16 07:44:37;;;;;;;;;;;;;;;;;;5012497;28;20404;-57
2024/03/16 07:47:03;;;;;;;;;;;;;;;;;;5012040;28;19920;-57
2024/03/16 07:49:30;;;;;;;;;;;;;;;;;;5012189;28;19909;-58
2024/03/16 07:51:56;;;;;;;;;;;;;;;;;;5012292;28;19909;-61
2024/03/16 07:54:22;;;;;;;;;;;;;;;;;;5012367;28;19979;-61
2024/03/16 07:56:48;;;;;;;;;;;;;;;;;;5012105;28;19909;-60
2024/03/16 07:59:14;;;;;;;;;;;;;;;;;;5012241;28;20398;-61
2024/03/16 08:01:40;;;;;;;;;;;;;;;;;;5012197;28;19909;-61
2024/03/16 08:04:07;;;;;;;;;;;;;;;;;;5015016;28;19977;-61
2024/03/16 08:06:33;;;;;;;;;;;;;;;;;;5016008;28;19913;-60
2024/03/16 08:08:59;;;;;;;;;;;;;;;;;;5016278;28;19913;-61
2024/03/16 08:11:27;;;;;;;;;;;;;;;;;;5016274;28;19909;-60
2024/03/16 08:13:54;;;;;;;;;;;;;;;;;;5016227;28;19909;-60
2024/03/16 08:16:20;;;;;;;;;;;;;;;;;;5015957;28;19909;-56
2024/03/16 08:18:46;;;;;;;;;;;;;;;;;;5014810;28;20012;-60
2024/03/16 08:21:14;;;;;;;;;;;;;;;;;;5014766;28;19931;-60
2024/03/16 08:23:40;;;;;;;;;;;;;;;;;;5015964;28;19956;-60
2024/03/16 08:26:06;;;;;;;;;;;;;;;;;;5015746;28;20346;-60
2024/03/16 08:28:32;;;;;;;;;;;;;;;;;;5015985;28;19951;-62
2024/03/16 08:30:59;;;;;;;;;;;;;;;;;;5014492;28;20015;-64
2024/03/16 08:33:26;;;;;;;;;;;;;;;;;;5015590;28;19916;-64
2024/03/16 08:35:52;;;;;;;;;;;;;;;;;;5015397;28;19913;-60
2024/03/16 08:38:19;;;;;;;;;;;;;;;;;;5015694;28;19905;-59
2024/03/16 08:40:45;;;;;;;;;;;;;;;;;;5015675;28;19916;-59
2024/03/16 08:43:11;;;;;;;;;;;;;;;;;;5014470;28;20323;-61
2024/03/16 08:45:37;;;;;;;;;;;;;;;;;;5015287;28;19955;-58
2024/03/16 08:48:03;;;;;;;;;;;;;;;;;;5015421;28;19948;-59
2024/03/16 08:50:29;;;;;;;;;;;;;;;;;;5015577;28;20299;-61
2024/03/16 08:52:56;;;;;;;;;;;;;;;;;;5014294;28;20004;-60
2024/03/16 08:55:23;;;;;;;;;;;;;;;;;;5013877;28;19945;-60
2024/03/16 08:57:49;;;;;;;;;;;;;;;;;;5015366;28;19967;-60
2024/03/16 09:00:15;;;;;;;;;;;;;;;;;;5015227;28;19920;-60
2024/03/16 09:02:42;;;;;;;;;;;;;;;;;;5015061;28;19909;-60
2024/03/16 09:05:08;;;;;;;;;;;;;;;;;;5015085;28;20019;-60
2024/03/16 09:07:34;;;;;;;;;;;;;;;;;;5015126;28;19920;-60
2024/03/16 09:10:00;;;;;;;;;;;;;;;;;;5015251;28;19909;-61
2024/03/16 09:12:26;;;;;;;;;;;;;;;;;;5015000;28;19905;-61
2024/03/16 09:14:53;;;;;;;;;;;;;;;;;;5013940;28;19917;-61
2024/03/16 09:17:19;;;;;;;;;;;;;;;;;;5014918;28;19913;-61
2024/03/16 09:19:47;;;;;;;;;;;;;;;;;;5015275;28;19909;-61
2024/03/16 09:22:13;;;;;;;;;;;;;;;;;;5014970;28;19905;-61
2024/03/16 09:24:39;;;;;;;;;;;;;;;;;;5014958;28;20346;-61
2024/03/16 09:27:05;;;;;;;;;;;;;;;;;;5013242;28;20387;-61
2024/03/16 09:29:31;;;;;;;;;;;;;;;;;;5014876;28;19916;-61
2024/03/16 09:31:57;;;;;;;;;;;;;;;;;;5013389;28;19906;-61
2024/03/16 09:34:23;;;;;;;;;;;;;;;;;;5014726;28;19913;-61
2024/03/16 09:36:50;;;;;;;;;;;;;;;;;;5014346;28;20015;-61
2024/03/16 09:39:16;;;;;;;;;;;;;;;;;;5014642;28;19994;-61
2024/03/16 09:41:46;;;;;;;;;;;;;;;;;;5014675;28;19913;-62
2024/03/16 09:44:13;;;;;;;;;;;;;;;;;;5014502;28;19909;-61
2024/03/16 09:46:39;;;;;;;;;;;;;;;;;;5014168;28;19929;-62
2024/03/16 09:49:05;;;;;;;;;;;;;;;;;;5014453;28;19949;-61
2024/03/16 09:51:31;;;;;;;;;;;;;;;;;;5013074;28;19905;-61
2024/03/16 09:53:57;;;;;;;;;;;;;;;;;;5014394;28;19909;-61
2024/03/16 09:56:23;;;;;;;;;;;;;;;;;;5013998;28;19910;-61
2024/03/16 09:58:50;;;;;;;;;;;;;;;;;;5014170;28;19964;-61
2024/03/16 10:01:16;;;;;;;;;;;;;;;;;;4996497;28;20032;-61
2024/03/16 10:03:44;;;;;;;;;;;;;;;;;;5014133;28;19909;-61
2024/03/16 10:06:15;;;;;;;;;;;;;;;;;;5013775;28;20291;-61
2024/03/16 10:08:42;;;;;;;;;;;;;;;;;;5014042;28;20000;-61
2024/03/16 10:11:12;;;;;;;;;;;;;;;;;;5013096;28;20268;-61
2024/03/16 10:13:38;;;;;;;;;;;;;;;;;;5012735;28;19909;-61
2024/03/16 10:16:04;;;;;;;;;;;;;;;;;;5013577;28;20000;-62
2024/03/16 10:18:31;;;;;;;;;;;;;;;;;;5013804;28;19913;-61
2024/03/16 10:20:58;;;;;;;;;;;;;;;;;;5013728;28;19909;-61
2024/03/16 10:23:25;;;;;;;;;;;;;;;;;;5013786;28;19909;-61
2024/03/16 10:25:55;;;;;;;;;;;;;;;;;;5013336;28;19916;-61
2024/03/16 10:28:21;;;;;;;;;;;;;;;;;;5012568;28;19941;-61
2024/03/16 10:30:47;;;;;;;;;;;;;;;;;;5013727;28;20071;-61
2024/03/16 10:33:13;;;;;;;;;;;;;;;;;;5013595;28;20324;-61
2024/03/16 10:35:39;;;;;;;;;;;;;;;;;;5013329;28;19917;-62
2024/03/16 10:38:07;;;;;;;;;;;;;;;;;;5012256;28;19909;-61
2024/03/16 10:40:33;;;;;;;;;;;;;;;;;;5013476;28;19913;-61
2024/03/16 10:43:01;;;;;;;;;;;;;;;;;;5012413;28;19913;-61
2024/03/16 10:45:30;;;;;;;;;;;;;;;;;;5013217;28;19939;-61
2024/03/16 10:47:56;;;;;;;;;;;;;;;;;;5012124;28;19952;-61
2024/03/16 10:50:27;;;;;;;;;;;;;;;;;;5013361;28;19909;-61
2024/03/16 10:52:53;;;;;;;;;;;;;;;;;;5013192;28;19909;-61
2024/03/16 10:55:22;;;;;;;;;;;;;;;;;;5013018;28;19955;-61
2024/03/16 10:57:49;;;;;;;;;;;;;;;;;;5012015;28;19910;-61
2024/03/16 11:00:15;;;;;;;;;;;;;;;;;;5013214;28;19996;-61
2024/03/16 11:02:41;;;;;;;;;;;;;;;;;;5011948;28;19909;-61
2024/03/16 11:05:14;;;;;;;;;;;;;;;;;;5013002;28;19905;-61
2024/03/16 11:07:40;;;;;;;;;;;;;;;;;;5011835;28;19913;-61
2024/03/16 11:10:09;;;;;;;;;;;;;;;;;;5013044;28;19910;-61
2024/03/16 11:12:35;;;;;;;;;;;;;;;;;;5013148;28;19909;-61
2024/03/16 11:15:02;;;;;;;;;;;;;;;;;;5010255;28;19955;-61
2024/03/16 11:17:28;;;;;;;;;;;;;;;;;;5006936;28;19917;-61
2024/03/16 11:19:54;;;;;;;;;;;;;;;;;;5003265;28;20391;-61
2024/03/16 11:22:21;;;;;;;;;;;;;;;;;;5005860;28;19962;-62
2024/03/16 11:24:47;;;;;;;;;;;;;;;;;;4994582;28;19909;-62
2024/03/16 11:27:16;;;;;;;;;;;;;;;;;;5002966;28;19920;-50
2024/03/16 11:29:42;;;;;;;;;;;;;;;;;;4997464;28;19910;-61
2024/03/16 11:32:08;;;;;;;;;;;;;;;;;;5005312;28;19992;-62
2024/03/16 11:34:34;;;;;;;;;;;;;;;;;;5008661;28;19935;-61
2024/03/16 11:37:04;;;;;;;;;;;;;;;;;;5024904;23;19928;-58
2024/03/16 11:39:32;;;;;;;;;;;;;;;;;;5007867;28;19910;-59
2024/03/16 11:41:58;;;;;;;;;;;;;;;;;;5007866;28;19909;-58
2024/03/16 11:44:24;;;;;;;;;;;;;;;;;;5009060;28;19914;-58
2024/03/16 11:46:53;;;;;;;;;;;;;;;;;;4998568;28;19917;-58
2024/03/16 11:49:21;;;;;;;;;;;;;;;;;;4982751;28;19910;-60
2024/03/16 11:51:54;;;;;;;;;;;;;;;;;;5004606;28;19914;-58
2024/03/16 11:54:20;;;;;;;;;;;;;;;;;;4989477;28;19925;-58
2024/03/16 11:56:47;;;;;;;;;;;;;;;;;;4984611;28;19918;-59
2024/03/16 11:59:14;;;;;;;;;;;;;;;;;;4983635;28;19997;-56
2024/03/16 12:01:41;;;;;;;;;;;;;;;;;;4974468;28;20351;-50
2024/03/16 12:04:07;;;;;;;;;;;;;;;;;;4973385;28;19921;-49
2024/03/16 12:06:33;;;;;;;;;;;;;;;;;;4975809;28;20055;-49
2024/03/16 12:09:02;;;;;;;;;;;;;;;;;;4985552;28;19910;-51
2024/03/16 12:11:29;;;;;;;;;;;;;;;;;;4984893;28;19910;-49
2024/03/16 12:13:55;;;;;;;;;;;;;;;;;;4986480;28;19910;-52
2024/03/16 12:16:21;;;;;;;;;;;;;;;;;;4990639;28;19910;-51
2024/03/16 12:18:47;;;;;;;;;;;;;;;;;;4976236;28;19914;-50
2024/03/16 12:21:13;;;;;;;;;;;;;;;;;;4976011;28;20324;-51
2024/03/16 12:23:40;;;;;;;;;;;;;;;;;;4975381;28;19916;-49
2024/03/16 12:26:09;;;;;;;;;;;;;;;;;;4989389;28;19910;-49
2024/03/16 12:28:35;;;;;;;;;;;;;;;;;;4976777;28;19914;-49
2024/03/16 12:31:01;;;;;;;;;;;;;;;;;;4974185;28;20395;-49
2024/03/16 12:33:27;;;;;;;;;;;;;;;;;;4975549;28;19924;-53
2024/03/16 12:35:53;;;;;;;;;;;;;;;;;;4988615;28;20379;-56
2024/03/16 12:38:20;;;;;;;;;;;;;;;;;;4984281;28;19913;-50
2024/03/16 12:40:46;;;;;;;;;;;;;;;;;;4978966;28;20288;-49
2024/03/16 12:43:12;;;;;;;;;;;;;;;;;;5005077;28;19948;-50
2024/03/16 12:45:38;;;;;;;;;;;;;;;;;;4975844;28;20408;-52
2024/03/16 12:48:04;;;;;;;;;;;;;;;;;;4974359;28;19918;-51
2024/03/16 12:50:31;;;;;;;;;;;;;;;;;;4974490;28;19921;-49
2024/03/16 12:52:57;;;;;;;;;;;;;;;;;;4977413;28;19913;-50
2024/03/16 12:55:23;;;;;;;;;;;;;;;;;;4994180;28;19917;-53
2024/03/16 12:57:49;;;;;;;;;;;;;;;;;;4981665;28;20400;-49
2024/03/16 13:00:19;;;;;;;;;;;;;;;;;;4974792;28;19910;-54
2024/03/16 13:02:46;;;;;;;;;;;;;;;;;;4993181;28;20373;-51
2024/03/16 13:05:13;;;;;;;;;;;;;;;;;;4974624;28;19913;-53
2024/03/16 13:07:40;;;;;;;;;;;;;;;;;;4974636;28;20285;-51
2024/03/16 13:10:06;;;;;;;;;;;;;;;;;;4987938;28;19910;-51
2024/03/16 13:12:32;;;;;;;;;;;;;;;;;;4982381;28;19910;-58
2024/03/16 13:14:59;;;;;;;;;;;;;;;;;;4993035;28;19929;-54
2024/03/16 13:17:25;;;;;;;;;;;;;;;;;;4978537;28;20443;-52
2024/03/16 13:19:51;;;;;;;;;;;;;;;;;;4993806;28;19913;-59
2024/03/16 13:22:17;;;;;;;;;;;;;;;;;;4986345;28;20020;-59
2024/03/16 13:24:44;;;;;;;;;;;;;;;;;;4975597;28;19925;-58
2024/03/16 13:27:10;;;;;;;;;;;;;;;;;;4974043;28;19980;-60
2024/03/16 13:29:37;;;;;;;;;;;;;;;;;;4975423;28;19917;-58
2024/03/16 13:32:04;;;;;;;;;;;;;;;;;;4990121;28;19910;-58
2024/03/16 13:34:30;;;;;;;;;;;;;;;;;;4976253;28;20000;-58
2024/03/16 13:36:56;;;;;;;;;;;;;;;;;;4973943;28;20327;-58
2024/03/16 13:39:25;;;;;;;;;;;;;;;;;;4975773;28;19917;-58
2024/03/16 13:41:51;;;;;;;;;;;;;;;;;;4974017;28;19913;-57
2024/03/16 13:44:17;;;;;;;;;;;;;;;;;;4974116;28;19914;-58
2024/03/16 13:46:43;;;;;;;;;;;;;;;;;;4976980;28;20004;-59
2024/03/16 13:49:11;;;;;;;;;;;;;;;;;;4972815;28;19960;-59
2024/03/16 13:51:37;;;;;;;;;;;;;;;;;;4973911;28;20020;-60
2024/03/16 13:54:03;;;;;;;;;;;;;;;;;;4973797;28;19914;-59
2024/03/16 13:56:30;;;;;;;;;;;;;;;;;;4973879;28;19918;-59
2024/03/16 13:58:59;;;;;;;;;;;;;;;;;;4988777;28;20443;-59
2024/03/16 14:01:27;;;;;;;;;;;;;;;;;;4983683;28;19917;-59
2024/03/16 14:03:53;;;;;;;;;;;;;;;;;;4990015;28;19921;-58
2024/03/16 14:06:20;;;;;;;;;;;;;;;;;;4973357;28;20431;-59
2024/03/16 14:08:46;;;;;;;;;;;;;;;;;;4976924;28;19968;-59
2024/03/16 14:11:12;;;;;;;;;;;;;;;;;;4992423;28;19920;-58
2024/03/16 14:13:38;;;;;;;;;;;;;;;;;;4993091;28;19952;-59
2024/03/16 14:16:07;;;;;;;;;;;;;;;;;;4993514;28;19910;-59
2024/03/16 14:18:33;;;;;;;;;;;;;;;;;;4980516;28;19981;-59
2024/03/16 14:21:00;;;;;;;;;;;;;;;;;;4989816;28;19961;-59
2024/03/16 14:23:26;;;;;;;;;;;;;;;;;;4974680;28;20315;-60
2024/03/16 14:25:52;;;;;;;;;;;;;;;;;;4989520;28;19916;-60
2024/03/16 14:28:19;;;;;;;;;;;;;;;;;;4974843;28;19937;-58
2024/03/16 14:30:46;;;;;;;;;;;;;;;;;;4987293;28;19964;-48
2024/03/16 14:33:13;;;;;;;;;;;;;;;;;;4994194;28;19910;-48
2024/03/16 14:35:39;;;;;;;;;;;;;;;;;;4993627;28;19968;-47
2024/03/16 14:38:07;;;;;;;;;;;;;;;;;;4987576;28;19914;-46
2024/03/16 14:40:33;;;;;;;;;;;;;;;;;;4983284;28;19909;-48
2024/03/16 14:43:00;;;;;;;;;;;;;;;;;;4992433;28;20392;-58
2024/03/16 14:45:26;;;;;;;;;;;;;;;;;;4992151;28;19941;-59
2024/03/16 14:47:53;;;;;;;;;;;;;;;;;;4992261;28;19922;-59
2024/03/16 14:50:19;;;;;;;;;;;;;;;;;;4993832;28;19917;-59
2024/03/16 14:52:46;;;;;;;;;;;;;;;;;;4976489;28;19985;-61
2024/03/16 14:55:12;;;;;;;;;;;;;;;;;;4974153;28;19916;-61
2024/03/16 14:57:38;;;;;;;;;;;;;;;;;;4976054;28;19992;-60
2024/03/16 15:00:06;;;;;;;;;;;;;;;;;;4993558;28;20388;-59
2024/03/16 15:02:32;;;;;;;;;;;;;;;;;;4993566;28;19909;-60
2024/03/16 15:04:58;;;;;;;;;;;;;;;;;;4992883;28;20245;-60
2024/03/16 15:07:24;;;;;;;;;;;;;;;;;;4992410;28;20398;-53
2024/03/16 15:09:50;;;;;;;;;;;;;;;;;;4992030;28;19916;-62
2024/03/16 15:12:16;;;;;;;;;;;;;;;;;;4972294;28;19917;-62
2024/03/16 15:14:43;;;;;;;;;;;;;;;;;;4984961;28;20303;-62
2024/03/16 15:17:10;;;;;;;;;;;;;;;;;;4976130;28;19917;-60
2024/03/16 15:19:36;;;;;;;;;;;;;;;;;;4973768;28;19972;-60
2024/03/16 15:22:03;;;;;;;;;;;;;;;;;;4991750;28;20395;-59
2024/03/16 15:24:29;;;;;;;;;;;;;;;;;;4993348;28;20364;-59
2024/03/16 15:29:45;;;;;;;;;;;;;;;;;;4987956;28;20268;-51
2024/03/16 15:32:11;;;;;;;;;;;;;;;;;;4976037;28;19936;-51
2024/03/16 15:34:37;;;;;;;;;;;;;;;;;;4972426;28;20368;-50
2024/03/16 15:37:03;;;;;;;;;;;;;;;;;;4976305;28;19921;-51
2024/03/16 15:39:29;;;;;;;;;;;;;;;;;;4991455;28;19936;-56
2024/03/16 15:41:55;;;;;;;;;;;;;;;;;;4986149;28;19910;-51
2024/03/16 15:44:21;;;;;;;;;;;;;;;;;;4989166;28;19910;-53
2024/03/16 15:46:47;;;;;;;;;;;;;;;;;;4989651;28;20013;-55
2024/03/16 15:49:14;;;;;;;;;;;;;;;;;;4991925;28;19917;-51
2024/03/16 15:51:40;;;;;;;;;;;;;;;;;;4991782;28;19918;-53
2024/03/16 15:54:06;;;;;;;;;;;;;;;;;;4991723;28;19909;-52
2024/03/16 15:56:32;;;;;;;;;;;;;;;;;;4989673;28;20442;-52
2024/03/16 15:58:59;;;;;;;;;;;;;;;;;;4991933;28;20384;-52
2024/03/16 16:01:26;;;;;;;;;;;;;;;;;;4992044;28;19956;-55
2024/03/16 16:03:52;;;;;;;;;;;;;;;;;;4991949;28;19953;-52
2024/03/16 16:06:18;;;;;;;;;;;;;;;;;;4991500;28;19920;-56
2024/03/16 16:08:44;;;;;;;;;;;;;;;;;;4991693;28;20691;-53
2024/03/16 16:11:13;;;;;;;;;;;;;;;;;;4991214;28;20671;-54
2024/03/16 16:13:39;;;;;;;;;;;;;;;;;;4989134;28;19924;-54
2024/03/16 16:16:05;;;;;;;;;;;;;;;;;;4988484;28;19909;-55
2024/03/16 16:18:31;;;;;;;;;;;;;;;;;;4990430;28;19916;-57
2024/03/16 16:20:58;;;;;;;;;;;;;;;;;;4990242;28;19976;-57
2024/03/16 16:23:25;;;;;;;;;;;;;;;;;;4989558;28;19910;-50
2024/03/16 16:25:51;;;;;;;;;;;;;;;;;;4995336;28;19948;-54
2024/03/16 16:28:17;;;;;;;;;;;;;;;;;;4995619;28;19921;-51
2024/03/16 16:30:43;;;;;;;;;;;;;;;;;;4994732;28;20372;-51
2024/03/16 16:33:09;;;;;;;;;;;;;;;;;;4988517;28;19917;-52
2024/03/16 16:35:37;;;;;;;;;;;;;;;;;;4996067;28;19905;-53
2024/03/16 16:38:04;;;;;;;;;;;;;;;;;;4992757;28;19914;-49
2024/03/16 16:40:30;;;;;;;;;;;;;;;;;;4980047;28;19917;-50
2024/03/16 16:42:56;;;;;;;;;;;;;;;;;;4983334;28;19913;-52